Wetterdaten: Woche 13.08.01 - 19.08.01 (KW33)
Datum Zeit Temperatur Luftfeuchte Luftdruck Regenmenge Wind Richtung Taupunkt Windchill
13.08.2001 00:00 12.4 C 88 % 1014.9 hPa 0.0 l/m 0.8 km/h (0 Bft) O-SO 10.5 C 12.4 C
13.08.2001 01:00 11.8 C 89 % 1014.9 hPa 0.0 l/m 2.3 km/h (1 Bft) O-SO 10.1 C 11.8 C
13.08.2001 02:00 10.8 C 91 % 1014.9 hPa 0.0 l/m 0.2 km/h (0 Bft) O-SO 9.5 C 10.8 C
13.08.2001 03:00 10.4 C 93 % 1014.9 hPa 0.0 l/m 0.0 km/h (0 Bft) N 9.3 C 10.4 C
13.08.2001 04:00 10.0 C 94 % 1014.9 hPa 0.0 l/m 0.8 km/h (0 Bft) O-SO 9.1 C 10.0 C
13.08.2001 05:00 9.7 C 95 % 1014.6 hPa 0.0 l/m 0.0 km/h (0 Bft) N 9.0 C 9.7 C
13.08.2001 06:00 9.9 C 95 % 1014.9 hPa 0.0 l/m 0.8 km/h (0 Bft) O-SO 9.1 C 9.9 C
13.08.2001 07:00 11.2 C 93 % 1014.9 hPa 0.0 l/m 0.3 km/h (0 Bft) O-SO 10.1 C 11.2 C
13.08.2001 08:00 12.7 C 86 % 1014.9 hPa 0.0 l/m 0.0 km/h (0 Bft) N 10.5 C 12.7 C
13.08.2001 09:00 15.0 C 81 % 1014.9 hPa 0.0 l/m 1.1 km/h (0 Bft) O-SO 11.7 C 15.0 C
13.08.2001 10:00 18.0 C 71 % 1014.9 hPa 0.0 l/m 3.6 km/h (1 Bft) O 12.7 C 18.0 C
13.08.2001 11:00 20.6 C 62 % 1014.9 hPa 0.0 l/m 0.5 km/h (0 Bft) W-NW 13.0 C 20.6 C
13.08.2001 12:00 22.9 C 47 % 1014.5 hPa 0.0 l/m 3.7 km/h (1 Bft) W 10.8 C 22.9 C
13.08.2001 13:00 24.3 C 39 % 1013.9 hPa 0.0 l/m 7.2 km/h (2 Bft) W 9.6 C 24.3 C
13.08.2001 14:00 25.9 C 33 % 1013.5 hPa 0.0 l/m 5.9 km/h (2 Bft) W 8.2 C 25.9 C
13.08.2001 15:00 27.1 C 26 % 1012.8 hPa 0.0 l/m 5.2 km/h (1 Bft) W 5.9 C 27.1 C
13.08.2001 16:00 27.3 C 30 % 1012.5 hPa 0.0 l/m 4.3 km/h (1 Bft) W-NW 8.2 C 27.3 C
13.08.2001 17:00 27.4 C 33 % 1011.8 hPa 0.0 l/m 2.9 km/h (1 Bft) W 9.8 C 27.4 C
13.08.2001 18:00 26.7 C 37 % 1011.8 hPa 0.0 l/m 1.8 km/h (1 Bft) W 10.7 C 26.7 C
13.08.2001 19:00 25.6 C 40 % 1011.8 hPa 0.0 l/m 0.3 km/h (0 Bft) O-SO 10.7 C 25.6 C
13.08.2001 20:00 22.4 C 57 % 1011.8 hPa 0.0 l/m 5.1 km/h (1 Bft) O-SO 13.4 C 22.4 C
13.08.2001 21:00 18.9 C 70 % 1012.5 hPa 0.0 l/m 5.1 km/h (1 Bft) O 13.2 C 18.9 C
13.08.2001 22:00 17.0 C 75 % 1012.8 hPa 0.0 l/m 1.1 km/h (0 Bft) O 12.6 C 17.0 C
13.08.2001 23:00 15.7 C 80 % 1012.8 hPa 0.0 l/m 2.1 km/h (1 Bft) O 12.3 C 15.7 C
14.08.2001 00:00 15.0 C 83 % 1012.8 hPa 0.0 l/m 0.7 km/h (0 Bft) O 12.1 C 15.0 C
14.08.2001 01:00 14.2 C 86 % 1012.8 hPa 0.0 l/m 0.4 km/h (0 Bft) O 11.9 C 14.2 C
14.08.2001 02:00 13.4 C 89 % 1012.8 hPa 0.0 l/m 1.0 km/h (0 Bft) O-SO 11.6 C 13.4 C
14.08.2001 03:00 12.8 C 92 % 1012.8 hPa 0.0 l/m 1.7 km/h (1 Bft) O-SO 11.5 C 12.8 C
14.08.2001 04:00 12.4 C 92 % 1012.8 hPa 0.0 l/m 0.0 km/h (0 Bft) N 11.2 C 12.4 C
14.08.2001 05:00 11.8 C 94 % 1012.8 hPa 0.0 l/m 0.6 km/h (0 Bft) O-SO 10.9 C 11.8 C
14.08.2001 06:00 11.6 C 94 % 1012.8 hPa 0.0 l/m 0.7 km/h (0 Bft) O-SO 10.7 C 11.6 C
14.08.2001 07:00 12.3 C 94 % 1012.8 hPa 0.0 l/m 0.7 km/h (0 Bft) O 11.4 C 12.3 C
14.08.2001 08:00 14.3 C 90 % 1013.0 hPa 0.0 l/m 0.0 km/h (0 Bft) N 12.7 C 14.3 C
14.08.2001 09:00 17.1 C 79 % 1012.8 hPa 0.0 l/m 0.8 km/h (0 Bft) O 13.4 C 17.1 C
14.08.2001 10:00 20.1 C 69 % 1012.8 hPa 0.0 l/m 0.5 km/h (0 Bft) O-SO 14.2 C 20.1 C
14.08.2001 11:00 23.3 C 56 % 1012.8 hPa 0.0 l/m 2.8 km/h (1 Bft) O-SO 13.9 C 23.3 C
14.08.2001 12:00 24.8 C 51 % 1012.8 hPa 0.0 l/m 1.9 km/h (1 Bft) W 13.9 C 24.8 C
14.08.2001 13:00 26.3 C 48 % 1012.3 hPa 0.0 l/m 3.7 km/h (1 Bft) O-SO 14.5 C 26.3 C
14.08.2001 14:00 27.9 C 43 % 1011.8 hPa 0.0 l/m 2.4 km/h (1 Bft) O-SO 14.2 C 27.9 C
14.08.2001 15:00 29.1 C 37 % 1011.8 hPa 0.0 l/m 2.7 km/h (1 Bft) O-SO 12.9 C 29.1 C
14.08.2001 16:00 29.6 C 37 % 1011.8 hPa 0.0 l/m 3.3 km/h (1 Bft) O-SO 13.3 C 29.6 C
14.08.2001 17:00 30.0 C 37 % 1011.4 hPa 0.0 l/m 3.1 km/h (1 Bft) O-SO 13.8 C 30.0 C
14.08.2001 18:00 29.5 C 38 % 1011.1 hPa 0.0 l/m 0.4 km/h (0 Bft) O 13.8 C 29.5 C
14.08.2001 19:00 27.9 C 48 % 1011.1 hPa 0.0 l/m 0.0 km/h (0 Bft) N 15.7 C 27.9 C
14.08.2001 20:00 24.6 C 62 % 1011.7 hPa 0.0 l/m 5.7 km/h (1 Bft) O-SO 16.6 C 24.6 C
14.08.2001 21:00 21.5 C 72 % 1011.8 hPa 0.0 l/m 0.7 km/h (0 Bft) O-SO 16.2 C 21.5 C
14.08.2001 22:00 19.6 C 79 % 1012.5 hPa 0.0 l/m 2.7 km/h (1 Bft) O 15.8 C 19.6 C
14.08.2001 23:00 18.3 C 84 % 1012.8 hPa 0.0 l/m 1.2 km/h (1 Bft) O 15.5 C 18.3 C
15.08.2001 00:00 17.6 C 87 % 1012.8 hPa 0.0 l/m 2.4 km/h (1 Bft) O 15.3 C 17.6 C
15.08.2001 01:00 16.9 C 89 % 1013.2 hPa 0.0 l/m 1.3 km/h (1 Bft) O 15.1 C 16.9 C
15.08.2001 02:00 16.1 C 91 % 1013.9 hPa 0.0 l/m 0.9 km/h (0 Bft) O 14.6 C 16.1 C
15.08.2001 03:00 15.5 C 93 % 1013.9 hPa 0.0 l/m 3.0 km/h (1 Bft) O 14.4 C 15.5 C
15.08.2001 04:00 15.0 C 93 % 1013.9 hPa 0.0 l/m 0.2 km/h (0 Bft) N-NW 13.9 C 15.0 C
15.08.2001 05:00 14.6 C 94 % 1013.9 hPa 0.0 l/m 0.7 km/h (0 Bft) NO 13.7 C 14.6 C
15.08.2001 06:00 14.3 C 95 % 1014.5 hPa 0.0 l/m 0.0 km/h (0 Bft) N 13.4 C 14.3 C
15.08.2001 07:00 14.9 C 94 % 1014.9 hPa 0.0 l/m 0.0 km/h (0 Bft) N 13.9 C 14.9 C
15.08.2001 08:00 16.4 C 91 % 1014.9 hPa 0.0 l/m 0.0 km/h (0 Bft) N 14.9 C 16.4 C
15.08.2001 09:00 18.5 C 84 % 1014.9 hPa 0.0 l/m 0.3 km/h (0 Bft) W-NW 15.7 C 18.5 C
15.08.2001 10:00 21.3 C 73 % 1014.9 hPa 0.0 l/m 0.5 km/h (0 Bft) W 16.3 C 21.3 C
15.08.2001 11:00 24.4 C 62 % 1014.6 hPa 0.0 l/m 4.1 km/h (1 Bft) O 16.6 C 24.4 C
15.08.2001 12:00 26.8 C 54 % 1013.9 hPa 0.0 l/m 1.4 km/h (1 Bft) O 16.7 C 26.8 C
15.08.2001 13:00 28.3 C 48 % 1013.2 hPa 0.0 l/m 3.2 km/h (1 Bft) W-SW 16.3 C 28.3 C
15.08.2001 14:00 30.2 C 40 % 1012.8 hPa 0.0 l/m 3.1 km/h (1 Bft) W-NW 15.0 C 30.2 C
15.08.2001 15:00 31.4 C 36 % 1012.4 hPa 0.0 l/m 3.5 km/h (1 Bft) W-NW 14.7 C 31.4 C
15.08.2001 16:00 32.1 C 33 % 1011.8 hPa 0.0 l/m 2.9 km/h (1 Bft) O-SO 13.5 C 32.1 C
15.08.2001 17:00 32.1 C 31 % 1011.4 hPa 0.0 l/m 2.2 km/h (1 Bft) O-SO 13.0 C 32.1 C
15.08.2001 18:00 31.3 C 35 % 1010.8 hPa 0.0 l/m 2.8 km/h (1 Bft) O-SO 13.8 C 31.3 C
15.08.2001 19:00 29.0 C 44 % 1010.8 hPa 0.0 l/m 5.1 km/h (1 Bft) O-SO 15.5 C 29.0 C
15.08.2001 20:00 25.3 C 60 % 1010.8 hPa 0.0 l/m 2.6 km/h (1 Bft) O-SO 17.0 C 25.3 C
15.08.2001 21:00 22.2 C 71 % 1011.7 hPa 0.0 l/m 3.7 km/h (1 Bft) O-SO 16.6 C 22.2 C
15.08.2001 22:00 21.3 C 74 % 1011.8 hPa 0.0 l/m 3.0 km/h (1 Bft) O-SO 16.4 C 21.3 C
15.08.2001 23:00 20.5 C 76 % 1012.4 hPa 0.0 l/m 3.6 km/h (1 Bft) O 16.2 C 20.5 C
16.08.2001 00:00 20.3 C 78 % 1012.5 hPa 0.0 l/m 0.7 km/h (0 Bft) O 16.4 C 20.3 C
16.08.2001 01:00 19.3 C 83 % 1012.8 hPa 0.0 l/m 4.0 km/h (1 Bft) O-SO 16.3 C 19.3 C
16.08.2001 02:00 18.9 C 85 % 1012.5 hPa 0.0 l/m 2.4 km/h (1 Bft) O-SO 16.3 C 18.9 C
16.08.2001 03:00 17.9 C 89 % 1012.6 hPa 0.0 l/m 1.1 km/h (1 Bft) O-SO 16.0 C 17.9 C
16.08.2001 04:00 17.5 C 91 % 1012.8 hPa 0.0 l/m 2.8 km/h (1 Bft) O-SO 16.0 C 17.5 C
16.08.2001 05:00 17.2 C 92 % 1013.0 hPa 0.0 l/m 1.4 km/h (1 Bft) O-SO 15.9 C 17.2 C
16.08.2001 06:00 17.6 C 92 % 1013.7 hPa 0.0 l/m 1.8 km/h (1 Bft) O-SO 16.3 C 17.6 C
16.08.2001 07:00 18.1 C 91 % 1013.9 hPa 0.6 l/m 2.3 km/h (1 Bft) O-SO 16.6 C 18.1 C
16.08.2001 08:00 18.4 C 92 % 1013.9 hPa 0.0 l/m 0.1 km/h (0 Bft) N 17.1 C 18.4 C
16.08.2001 09:00 19.7 C 87 % 1013.9 hPa 0.0 l/m 1.1 km/h (0 Bft) O-SO 17.5 C 19.7 C
16.08.2001 10:00 22.2 C 76 % 1013.9 hPa 0.0 l/m 2.1 km/h (1 Bft) O-SO 17.7 C 22.2 C
16.08.2001 11:00 24.0 C 68 % 1013.9 hPa 0.0 l/m 0.3 km/h (0 Bft) W 17.6 C 24.0 C
16.08.2001 12:00 26.4 C 51 % 1013.9 hPa 0.0 l/m 4.7 km/h (1 Bft) W-NW 15.4 C 26.4 C
16.08.2001 13:00 26.6 C 44 % 1013.9 hPa 0.0 l/m 18.4 km/h (3 Bft) W-NW 13.2 C 26.6 C
16.08.2001 14:00 26.5 C 44 % 1013.9 hPa 0.0 l/m 17.7 km/h (3 Bft) W-NW 13.1 C 26.5 C
16.08.2001 15:00 25.7 C 44 % 1013.9 hPa 0.0 l/m 16.3 km/h (3 Bft) W-NW 12.5 C 25.7 C
16.08.2001 16:00 24.7 C 55 % 1013.9 hPa 0.0 l/m 12.8 km/h (3 Bft) W-NW 14.9 C 24.7 C
16.08.2001 17:00 23.6 C 59 % 1013.9 hPa 0.0 l/m 6.8 km/h (2 Bft) W-NW 15.2 C 23.6 C
16.08.2001 18:00 21.9 C 65 % 1013.9 hPa 0.0 l/m 6.4 km/h (2 Bft) W 15.0 C 21.9 C
16.08.2001 19:00 22.1 C 61 % 1014.0 hPa 0.0 l/m 6.4 km/h (2 Bft) W-NW 14.3 C 22.1 C
16.08.2001 20:00 21.5 C 65 % 1014.9 hPa 0.0 l/m 2.5 km/h (1 Bft) W 14.5 C 21.5 C
16.08.2001 21:00 20.0 C 69 % 1015.7 hPa 0.0 l/m 0.2 km/h (0 Bft) N 14.1 C 20.0 C
16.08.2001 22:00 18.9 C 73 % 1016.0 hPa 0.0 l/m 0.0 km/h (0 Bft) O 13.9 C 18.9 C
16.08.2001 23:00 17.7 C 80 % 1016.0 hPa 0.0 l/m 3.1 km/h (1 Bft) O-SO 14.1 C 17.7 C
17.08.2001 00:00 17.0 C 84 % 1016.0 hPa 0.0 l/m 1.1 km/h (1 Bft) O 14.3 C 17.0 C
17.08.2001 01:00 16.7 C 85 % 1016.0 hPa 0.0 l/m 1.5 km/h (1 Bft) O 14.1 C 16.7 C
17.08.2001 02:00 16.7 C 86 % 1015.6 hPa 0.0 l/m 1.1 km/h (1 Bft) O-SO 14.3 C 16.7 C
17.08.2001 03:00 16.4 C 88 % 1014.9 hPa 0.0 l/m 0.5 km/h (0 Bft) O-SO 14.4 C 16.4 C
17.08.2001 04:00 16.5 C 90 % 1014.9 hPa 0.0 l/m 0.0 km/h (0 Bft) O-NO 14.9 C 16.5 C
17.08.2001 05:00 17.0 C 91 % 1014.0 hPa 0.0 l/m 0.8 km/h (0 Bft) NO 15.6 C 17.0 C
17.08.2001 06:00 16.8 C 92 % 1013.9 hPa 0.0 l/m 0.1 km/h (0 Bft) N 15.4 C 16.8 C
17.08.2001 07:00 17.3 C 89 % 1013.9 hPa 0.0 l/m 0.2 km/h (0 Bft) W 15.5 C 17.3 C
17.08.2001 08:00 18.3 C 84 % 1013.9 hPa 0.0 l/m 0.3 km/h (0 Bft) W-NW 15.5 C 18.3 C
17.08.2001 09:00 19.2 C 81 % 1013.7 hPa 0.0 l/m 0.3 km/h (0 Bft) N 15.9 C 19.2 C
17.08.2001 10:00 21.2 C 73 % 1012.8 hPa 0.0 l/m 3.3 km/h (1 Bft) O-SO 16.2 C 21.2 C
17.08.2001 11:00 22.3 C 70 % 1012.8 hPa 0.0 l/m 7.8 km/h (2 Bft) O-SO 16.5 C 22.3 C
17.08.2001 12:00 21.5 C 74 % 1012.6 hPa 0.0 l/m 2.9 km/h (1 Bft) O-SO 16.7 C 21.5 C
17.08.2001 13:00 21.0 C 77 % 1012.5 hPa 0.0 l/m 2.7 km/h (1 Bft) O-SO 16.8 C 21.0 C
17.08.2001 14:00 21.2 C 79 % 1012.0 hPa 0.0 l/m 1.8 km/h (1 Bft) O-SO 17.3 C 21.2 C
17.08.2001 15:00 21.9 C 76 % 1011.8 hPa 0.0 l/m 0.3 km/h (0 Bft) N 17.5 C 21.9 C
17.08.2001 16:00 23.1 C 71 % 1011.3 hPa 0.0 l/m 0.4 km/h (0 Bft) N 17.4 C 23.1 C
17.08.2001 17:00 25.0 C 63 % 1010.6 hPa 0.0 l/m 2.4 km/h (1 Bft) NO 17.4 C 25.0 C
17.08.2001 18:00 24.2 C 64 % 1009.7 hPa 0.0 l/m 12.3 km/h (3 Bft) O-SO 17.0 C 24.2 C
17.08.2001 19:00 23.0 C 67 % 1009.7 hPa 0.0 l/m 6.0 km/h (2 Bft) O-SO 16.6 C 23.0 C
17.08.2001 20:00 20.9 C 76 % 1010.6 hPa 0.0 l/m 0.0 km/h (0 Bft) N 16.5 C 20.9 C
17.08.2001 21:00 19.1 C 84 % 1010.8 hPa 0.0 l/m 0.3 km/h (0 Bft) O 16.3 C 19.1 C
17.08.2001 22:00 17.8 C 89 % 1010.9 hPa 0.0 l/m 3.1 km/h (1 Bft) O 15.9 C 17.8 C
17.08.2001 23:00 17.6 C 90 % 1011.8 hPa 0.0 l/m 3.3 km/h (1 Bft) O-SO 16.0 C 17.6 C
18.08.2001 00:00 17.4 C 91 % 1011.3 hPa 0.0 l/m 2.5 km/h (1 Bft) O-SO 15.9 C 17.4 C
18.08.2001 01:00 17.2 C 92 % 1010.8 hPa 0.0 l/m 1.0 km/h (0 Bft) O-SO 15.9 C 17.2 C
18.08.2001 02:00 17.5 C 91 % 1010.8 hPa 0.0 l/m 1.1 km/h (1 Bft) O-SO 15.9 C 17.5 C
18.08.2001 03:00 17.7 C 90 % 1010.2 hPa 0.0 l/m 2.0 km/h (1 Bft) O-SO 16.1 C 17.7 C
18.08.2001 04:00 17.5 C 88 % 1009.7 hPa 0.0 l/m 0.9 km/h (0 Bft) O-SO 15.6 C 17.5 C
18.08.2001 05:00 17.0 C 89 % 1009.7 hPa 0.0 l/m 1.1 km/h (1 Bft) O-SO 15.2 C 17.0 C
18.08.2001 06:00 16.5 C 90 % 1009.7 hPa 0.0 l/m 1.0 km/h (0 Bft) O-SO 14.8 C 16.5 C
18.08.2001 07:00 16.7 C 90 % 1009.7 hPa 0.0 l/m 1.8 km/h (1 Bft) O-SO 15.1 C 16.7 C
18.08.2001 08:00 17.2 C 87 % 1010.7 hPa 0.0 l/m 3.5 km/h (1 Bft) O-SO 15.1 C 17.2 C
18.08.2001 09:00 18.1 C 84 % 1010.8 hPa 0.0 l/m 1.4 km/h (1 Bft) O-SO 15.3 C 18.1 C
18.08.2001 10:00 19.6 C 78 % 1010.8 hPa 0.0 l/m 4.3 km/h (1 Bft) W 15.7 C 19.6 C
18.08.2001 11:00 20.9 C 74 % 1010.6 hPa 0.0 l/m 5.2 km/h (1 Bft) O 16.0 C 20.9 C
18.08.2001 12:00 23.0 C 67 % 1009.7 hPa 0.0 l/m 5.6 km/h (1 Bft) O-SO 16.5 C 23.0 C
18.08.2001 13:00 25.3 C 59 % 1009.0 hPa 0.0 l/m 3.6 km/h (1 Bft) O-SO 16.7 C 25.3 C
18.08.2001 14:00 27.0 C 48 % 1008.7 hPa 0.0 l/m 4.3 km/h (1 Bft) O-SO 15.1 C 27.0 C
18.08.2001 15:00 28.4 C 42 % 1008.1 hPa 0.0 l/m 5.6 km/h (1 Bft) O-SO 14.1 C 28.4 C
18.08.2001 16:00 29.0 C 39 % 1007.6 hPa 0.0 l/m 3.0 km/h (1 Bft) O 13.5 C 29.0 C
18.08.2001 17:00 29.0 C 37 % 1006.7 hPa 0.0 l/m 2.8 km/h (1 Bft) O-SO 12.9 C 29.0 C
18.08.2001 18:00 28.3 C 41 % 1006.6 hPa 0.0 l/m 2.7 km/h (1 Bft) W 13.6 C 28.3 C
18.08.2001 19:00 26.5 C 50 % 1006.6 hPa 0.0 l/m 1.6 km/h (1 Bft) O-SO 15.3 C 26.5 C
18.08.2001 20:00 23.1 C 65 % 1006.5 hPa 0.0 l/m 4.6 km/h (1 Bft) O-SO 16.2 C 23.1 C
18.08.2001 21:00 21.4 C 72 % 1006.6 hPa 0.0 l/m 1.6 km/h (1 Bft) O 16.2 C 21.4 C
18.08.2001 22:00 20.0 C 76 % 1006.6 hPa 0.0 l/m 0.0 km/h (0 Bft) N 15.5 C 20.0 C
18.08.2001 23:00 18.7 C 81 % 1006.7 hPa 0.0 l/m 0.0 km/h (0 Bft) N 15.2 C 18.7 C
19.08.2001 00:00 17.6 C 85 % 1006.6 hPa 0.0 l/m 0.0 km/h (0 Bft) N 15.0 C 17.6 C
19.08.2001 01:00 18.1 C 84 % 1007.4 hPa 0.0 l/m 4.0 km/h (1 Bft) O-SO 15.4 C 18.1 C
19.08.2001 02:00 17.9 C 88 % 1007.6 hPa 0.3 l/m 4.3 km/h (1 Bft) O-SO 15.9 C 17.9 C
19.08.2001 03:00 18.1 C 86 % 1009.4 hPa 0.9 l/m 17.4 km/h (3 Bft) W-NW 15.6 C 18.1 C
19.08.2001 04:00 16.0 C 89 % 1010.6 hPa 1.6 l/m 10.8 km/h (2 Bft) W-NW 14.2 C 16.0 C
19.08.2001 05:00 15.6 C 93 % 1009.7 hPa 0.3 l/m 3.2 km/h (1 Bft) O-SO 14.4 C 15.6 C
19.08.2001 06:00 15.6 C 94 % 1010.1 hPa 0.0 l/m 0.4 km/h (0 Bft) O-SO 14.6 C 15.6 C
19.08.2001 07:00 15.9 C 94 % 1010.4 hPa 0.0 l/m 0.5 km/h (0 Bft) O-SO 15.0 C 15.9 C
19.08.2001 08:00 16.3 C 93 % 1010.1 hPa 0.0 l/m 0.0 km/h (0 Bft) N 15.2 C 16.3 C
19.08.2001 09:00 17.2 C 89 % 1009.7 hPa 0.0 l/m 0.1 km/h (0 Bft) N 15.4 C 17.2 C
19.08.2001 10:00 18.9 C 82 % 1009.7 hPa 0.0 l/m 1.0 km/h (0 Bft) W 15.7 C 18.9 C
19.08.2001 11:00 20.9 C 75 % 1009.7 hPa 0.0 l/m 0.4 km/h (0 Bft) W-NW 16.3 C 20.9 C
19.08.2001 12:00 22.7 C 67 % 1009.2 hPa 0.0 l/m 4.0 km/h (1 Bft) O-SO 16.3 C 22.7 C
19.08.2001 13:00 24.3 C 60 % 1008.7 hPa 0.0 l/m 5.8 km/h (2 Bft) O-SO 15.9 C 24.3 C
19.08.2001 14:00 25.7 C 55 % 1008.2 hPa 0.0 l/m 6.1 km/h (2 Bft) O-SO 15.8 C 25.7 C
19.08.2001 15:00 27.3 C 49 % 1007.6 hPa 0.0 l/m 4.9 km/h (1 Bft) O-SO 15.6 C 27.3 C
19.08.2001 16:00 27.9 C 44 % 1007.0 hPa 0.0 l/m 3.0 km/h (1 Bft) O-SO 14.4 C 27.9 C
19.08.2001 17:00 27.8 C 42 % 1006.4 hPa 0.0 l/m 2.7 km/h (1 Bft) O-SO 13.7 C 27.8 C
19.08.2001 18:00 26.9 C 46 % 1005.6 hPa 0.0 l/m 2.9 km/h (1 Bft) O-SO 14.3 C 26.9 C
19.08.2001 19:00 24.6 C 60 % 1005.6 hPa 0.0 l/m 4.7 km/h (1 Bft) O-SO 16.1 C 24.6 C
19.08.2001 20:00 21.2 C 75 % 1006.1 hPa 0.0 l/m 1.7 km/h (1 Bft) O-SO 16.5 C 21.2 C
19.08.2001 21:00 20.3 C 79 % 1006.6 hPa 0.0 l/m 1.0 km/h (0 Bft) O-SO 16.5 C 20.3 C
19.08.2001 22:00 20.3 C 77 % 1007.5 hPa 0.0 l/m 14.3 km/h (3 Bft) W-NW 16.0 C 20.3 C
19.08.2001 23:00 19.3 C 79 % 1007.6 hPa 0.0 l/m 2.9 km/h (1 Bft) W-NW 15.5 C 19.3 C
Min-Datum _ 13.08.01 13.08.01 18.08.01 - 13.08.01 - 13.08.01 13.08.01
_ Min-Zeit 05:52 15:31 20:12 - 00:01 - 15:37 05:52
Minimum _ 9.5 C 22 % 1005.6 hPa - 0.0 km/h (0 Bft) - 3.5 C 9.5 C
Max-Datum _ 15.08.01 13.08.01 16.08.01 19.08.01 19.08.01 - 16.08.01 15.08.01
_ Max-Zeit 16:43 04:55 21:13 03:00 03:52 - 09:49 16:43
Maximum _ 32.4 C 95 % 1016.0 hPa 1.6 l/m 45.6 km/h
W-NW (6 Bft)
- 18.4 C 32.4 C
Durchschnitt _ 20.5 C 72 % 1011.9 hPa #3.8 l/m 2.8 km/h (1 Bft) O-SO 14.4 C 20.5 C

Durchschnitt Minimum Temp.19.6 C
Durchschnitt Maximum Temp.21.4 C
© Kaiko 2001